Fes, Morocco
Current Conditions -  °F | °C
As of 10:00 PM on Monday 24 Nov 2014 (Local Time) from GMFF Reporting Station
Scattered Clouds Scattered Clouds  
Wind Chill: 13°   Ceiling: Unl
Heat Index: 13°   Visibility: 6mi
Dew Point: 12°   Wind: 6mph
Humidity: 94%   Direction: 220°SW
Pressure: 30.12"   Gusts: NA
Location:  34.05°N, 5°W
Report Text: GMFF 242100Z 22005KT 9999 FEW016 SCT026 13/12 Q1020 NOSIG
Loading
Personal Weather Stations






























Interactive Weather Map New forecast layout! Learn more

10-Day Weather Forecast

Advertisements
Track Severe Weather on mobile